Time;durP1;ratioP1;P1;durP2;ratioP2;P2;SDS_P1;SDS_P2;PMS_P1;PMS_P2;Temp;Humidity;BMP_temperature;BMP_pressure;BME280_temperature;BME280_humidity;BME280_pressure;Samples;Min_cycle;Max_cycle;Signal;HPM_P1;HPM_P2
2021/12/08 00:00:28;;;;;;;3.38;1.70;;;7.80;96.70;;;;;;5016341;28;20084;-49
2021/12/08 00:02:54;;;;;;;2.78;1.85;;;7.80;96.90;;;;;;5020966;28;20037;-49
2021/12/08 00:05:22;;;;;;;6.45;1.90;;;7.80;96.70;;;;;;5015507;28;20049;-50
2021/12/08 00:07:49;;;;;;;3.45;1.92;;;7.80;96.70;;;;;;5019359;28;20067;-50
2021/12/08 00:10:52;;;;;;;9.85;2.17;;;7.80;96.70;;;;;;5021809;28;20041;-50
2021/12/08 00:13:14;;;;;;;2.80;1.70;;;7.80;96.70;;;;;;5018659;28;20029;-50
2021/12/08 00:15:42;;;;;;;4.90;2.10;;;7.80;96.70;;;;;;5020496;28;20030;-49
2021/12/08 00:18:11;;;;;;;8.73;1.83;;;7.80;96.80;;;;;;5017337;28;20033;-50
2021/12/08 00:20:38;;;;;;;10.77;3.83;;;7.80;96.80;;;;;;5017647;28;20547;-50
2021/12/08 00:23:06;;;;;;;13.50;4.43;;;7.80;96.70;;;;;;5020172;28;20042;-50
2021/12/08 00:25:33;;;;;;;14.82;5.10;;;7.80;96.70;;;;;;5020781;28;20028;-50
2021/12/08 00:27:59;;;;;;;15.95;4.72;;;7.80;96.70;;;;;;5021704;28;20045;-49
2021/12/08 00:30:26;;;;;;;13.68;4.78;;;7.80;96.70;;;;;;5012863;28;20112;-50
2021/12/08 00:32:53;;;;;;;11.18;4.43;;;7.80;96.70;;;;;;5023051;28;20021;-49
2021/12/08 00:35:20;;;;;;;11.43;4.75;;;7.80;96.70;;;;;;5015923;28;20380;-49
2021/12/08 00:37:46;;;;;;;5.65;2.83;;;7.80;96.70;;;;;;5018250;28;20034;-49
2021/12/08 00:40:14;;;;;;;14.88;3.42;;;7.80;96.70;;;;;;5021790;28;20502;-50
2021/12/08 00:42:40;;;;;;;8.52;3.47;;;7.80;96.70;;;;;;5018846;28;20469;-50
2021/12/08 00:45:08;;;;;;;9.77;3.33;;;7.80;96.70;;;;;;5021889;28;20025;-50
2021/12/08 00:47:33;;;;;;;9.23;3.53;;;7.80;96.70;;;;;;5015904;28;20352;-49
2021/12/08 00:49:59;;;;;;;4.85;2.50;;;7.80;96.70;;;;;;5012674;28;20037;-50
2021/12/08 00:52:28;;;;;;;5.90;2.45;;;7.80;96.70;;;;;;5018720;28;20119;-49
2021/12/08 00:54:55;;;;;;;3.85;2.13;;;7.80;96.60;;;;;;5021404;28;20169;-49
2021/12/08 00:57:21;;;;;;;6.25;2.25;;;7.80;96.70;;;;;;5018207;28;20025;-50
2021/12/08 00:59:47;;;;;;;2.80;1.67;;;7.80;96.60;;;;;;5012082;28;20115;-49
2021/12/08 01:02:13;;;;;;;6.05;1.98;;;7.80;96.70;;;;;;5016167;28;20084;-50
2021/12/08 01:04:39;;;;;;;3.97;1.80;;;7.80;96.60;;;;;;5021036;28;20026;-49
2021/12/08 01:07:06;;;;;;;6.90;2.22;;;7.80;96.60;;;;;;5014499;28;20124;-49
2021/12/08 01:09:32;;;;;;;6.47;2.05;;;7.80;96.60;;;;;;5013371;28;20018;-49
2021/12/08 01:12:01;;;;;;;5.82;1.95;;;7.80;96.60;;;;;;5017217;28;20503;-49
2021/12/08 01:14:29;;;;;;;3.35;1.85;;;7.80;96.60;;;;;;5018839;28;20182;-49
2021/12/08 01:16:55;;;;;;;3.53;2.00;;;7.80;96.60;;;;;;5018261;28;20029;-49
2021/12/08 01:19:21;;;;;;;3.38;1.50;;;7.80;96.60;;;;;;5015075;28;20095;-50
2021/12/08 01:21:47;;;;;;;6.47;1.58;;;7.80;96.90;;;;;;5014912;28;20033;-50
2021/12/08 01:24:13;;;;;;;3.90;1.88;;;7.80;96.70;;;;;;5021504;28;20432;-50
2021/12/08 01:26:39;;;;;;;3.10;1.70;;;7.80;96.50;;;;;;5016758;28;20266;-50
2021/12/08 01:29:07;;;;;;;5.05;1.92;;;7.80;96.60;;;;;;5014909;28;20022;-49
2021/12/08 01:31:33;;;;;;;4.38;2.33;;;7.80;96.60;;;;;;5017281;28;20042;-49
2021/12/08 01:33:58;;;;;;;2.83;1.60;;;7.90;96.60;;;;;;5018687;28;20037;-50
2021/12/08 01:36:24;;;;;;;2.28;1.33;;;7.80;96.60;;;;;;5013299;28;20449;-50
2021/12/08 01:38:50;;;;;;;2.42;1.83;;;7.80;96.50;;;;;;5018784;28;20159;-50
2021/12/08 01:41:15;;;;;;;3.38;1.98;;;7.80;96.60;;;;;;5014647;28;20076;-50
2021/12/08 01:43:43;;;;;;;4.65;2.53;;;7.80;96.60;;;;;;5017862;28;20041;-50
2021/12/08 01:46:13;;;;;;;5.63;2.40;;;7.80;96.60;;;;;;5017593;28;20129;-50
2021/12/08 01:48:41;;;;;;;6.70;2.70;;;7.80;96.60;;;;;;5014303;28;20030;-50
2021/12/08 01:51:15;;;;;;;3.28;2.05;;;7.80;96.50;;;;;;5017746;28;20026;-50
2021/12/08 01:53:44;;;;;;;2.90;1.95;;;7.80;96.60;;;;;;5018965;28;20026;-50
2021/12/08 01:56:12;;;;;;;3.90;1.48;;;7.80;96.60;;;;;;5017909;28;20340;-50
2021/12/08 01:58:38;;;;;;;6.70;1.77;;;7.80;96.60;;;;;;5017811;28;20069;-50
2021/12/08 02:01:09;;;;;;;6.75;2.17;;;7.80;96.60;;;;;;5019462;28;20026;-50
2021/12/08 02:03:36;;;;;;;3.65;1.60;;;7.90;96.60;;;;;;5018295;28;20033;-51
2021/12/08 02:06:06;;;;;;;8.02;1.75;;;7.80;96.60;;;;;;5013379;28;20092;-50
2021/12/08 02:08:31;;;;;;;3.43;1.73;;;7.90;96.60;;;;;;5017582;28;20088;-50
2021/12/08 02:10:59;;;;;;;1.92;1.38;;;7.90;96.60;;;;;;5011249;28;20964;-50
2021/12/08 02:13:25;;;;;;;6.93;2.38;;;7.90;96.60;;;;;;5018866;28;20076;-50
2021/12/08 02:15:50;;;;;;;6.88;2.55;;;7.80;96.50;;;;;;5011936;28;20058;-50
2021/12/08 02:18:17;;;;;;;7.10;2.60;;;7.80;96.60;;;;;;5022222;28;20116;-49
2021/12/08 02:20:46;;;;;;;14.68;3.05;;;7.90;96.60;;;;;;5016216;28;20118;-50
2021/12/08 02:23:12;;;;;;;10.38;3.38;;;7.80;96.60;;;;;;5021917;28;20030;-50
2021/12/08 02:25:38;;;;;;;4.82;2.55;;;7.80;96.60;;;;;;5021869;28;20025;-50
2021/12/08 02:28:07;;;;;;;11.70;3.00;;;7.90;96.60;;;;;;5019012;28;20100;-50
2021/12/08 02:30:58;;;;;;;5.43;2.30;;;7.90;96.60;;;;;;5023043;28;20025;-50
2021/12/08 02:47:30;;;;;;;5.18;2.28;;;7.90;96.50;;;;;;5025251;28;20032;-51
2021/12/08 02:49:57;;;;;;;7.63;2.42;;;7.90;96.60;;;;;;5015966;28;20037;-50
2021/12/08 02:52:24;;;;;;;2.50;1.58;;;7.90;96.60;;;;;;5021031;28;20036;-49
2021/12/08 02:54:51;;;;;;;7.65;3.00;;;7.80;96.50;;;;;;5019437;28;20065;-50
2021/12/08 02:57:19;;;;;;;3.63;1.98;;;7.90;96.60;;;;;;5020484;28;20034;-50
2021/12/08 02:59:46;;;;;;;8.68;2.47;;;7.80;96.50;;;;;;5023204;28;20056;-50
2021/12/08 03:02:13;;;;;;;5.22;2.63;;;7.90;96.60;;;;;;5020044;28;20095;-51
2021/12/08 03:04:39;;;;;;;6.10;2.72;;;7.80;96.50;;;;;;5018968;28;20065;-50
2021/12/08 03:07:05;;;;;;;2.78;2.03;;;7.80;96.50;;;;;;5014109;28;20069;-50
2021/12/08 03:09:31;;;;;;;2.53;1.80;;;7.80;96.50;;;;;;5024548;28;20033;-50
2021/12/08 03:11:59;;;;;;;3.63;1.95;;;7.90;96.50;;;;;;5018809;28;20025;-50
2021/12/08 03:14:25;;;;;;;2.33;1.60;;;7.90;96.50;;;;;;5024320;28;20064;-50
2021/12/08 03:16:55;;;;;;;5.13;2.35;;;7.90;96.50;;;;;;5016501;28;20033;-50
2021/12/08 03:19:23;;;;;;;11.38;2.28;;;7.90;96.50;;;;;;5024598;28;20412;-50
2021/12/08 03:21:55;;;;;;;4.90;1.90;;;7.80;96.40;;;;;;5016786;28;20357;-49
2021/12/08 03:24:34;;;;;;;3.28;2.10;;;7.80;96.50;;;;;;5014965;28;20327;-50
2021/12/08 03:29:51;;;;;;;4.18;2.22;;;7.80;96.50;;;;;;5018230;28;20029;-49
2021/12/08 03:32:26;;;;;;;4.43;2.13;;;7.90;96.60;;;;;;5020870;28;20108;-50
2021/12/08 03:34:53;;;;;;;2.70;1.80;;;7.80;96.50;;;;;;5023587;28;20069;-49
2021/12/08 03:37:31;;;;;;;10.77;2.03;;;7.90;96.50;;;;;;5021956;28;20033;-49
2021/12/08 03:39:58;;;;;;;6.88;1.77;;;7.90;96.50;;;;;;5018663;28;20030;-49
2021/12/08 03:42:27;;;;;;;5.60;1.83;;;7.90;96.50;;;;;;5022110;28;20080;-49
2021/12/08 03:44:56;;;;;;;3.80;1.65;;;7.90;96.50;;;;;;5018450;28;20038;-50
2021/12/08 03:47:28;;;;;;;3.10;1.75;;;7.90;96.50;;;;;;5020287;28;20038;-50
2021/12/08 03:49:55;;;;;;;5.72;2.30;;;7.90;96.50;;;;;;5017383;28;20373;-50
2021/12/08 03:52:21;;;;;;;1.90;1.70;;;7.90;96.50;;;;;;5018883;28;20030;-50
2021/12/08 03:54:47;;;;;;;3.30;1.77;;;7.90;96.50;;;;;;5020798;28;20049;-50
2021/12/08 03:57:12;;;;;;;5.32;1.92;;;7.90;96.50;;;;;;5019158;28;20077;-50
2021/12/08 03:59:38;;;;;;;4.10;1.65;;;7.90;96.50;;;;;;5015701;28;20037;-49
2021/12/08 04:02:04;;;;;;;8.00;2.25;;;7.90;96.50;;;;;;5017433;28;20048;-50
2021/12/08 04:04:40;;;;;;;2.75;2.13;;;7.90;96.40;;;;;;5020681;28;20523;-50
2021/12/08 04:07:06;;;;;;;2.17;1.67;;;7.90;96.50;;;;;;5016859;28;20038;-49
2021/12/08 04:09:40;;;;;;;3.63;2.28;;;7.90;96.50;;;;;;5020178;28;20025;-49
2021/12/08 04:12:07;;;;;;;6.65;2.92;;;7.90;96.40;;;;;;5015957;28;20045;-49
2021/12/08 04:14:41;;;;;;;5.53;3.03;;;7.90;96.50;;;;;;5023866;28;20083;-50
2021/12/08 04:17:36;;;;;;;1.98;1.70;;;7.90;96.40;;;;;;5019508;28;20034;-50
2021/12/08 04:20:09;;;;;;;6.07;2.20;;;7.90;96.40;;;;;;5017643;28;20041;-50
2021/12/08 04:22:39;;;;;;;5.13;2.00;;;7.90;96.50;;;;;;5016373;28;20037;-50
2021/12/08 04:25:09;;;;;;;9.15;3.00;;;7.90;96.40;;;;;;5020759;28;20413;-50
2021/12/08 04:27:38;;;;;;;3.40;1.88;;;7.90;96.50;;;;;;5016716;28;20412;-49
2021/12/08 04:30:10;;;;;;;5.78;2.67;;;7.90;96.50;;;;;;5017783;28;20033;-50
2021/12/08 04:32:36;;;;;;;6.00;2.47;;;7.90;96.50;;;;;;5016409;28;20061;-49
2021/12/08 04:35:04;;;;;;;4.65;2.17;;;7.90;96.40;;;;;;5015705;28;20034;-49
2021/12/08 04:37:35;;;;;;;4.85;1.98;;;7.90;96.50;;;;;;5017912;28;20065;-50
2021/12/08 04:40:31;;;;;;;4.63;1.92;;;7.90;96.50;;;;;;5021379;28;20025;-49
2021/12/08 04:45:59;;;;;;;5.97;2.30;;;7.90;96.60;;;;;;5018632;28;20041;-50
2021/12/08 04:51:19;;;;;;;5.45;2.53;;;7.80;96.50;;;;;;5020637;28;20380;-50
2021/12/08 05:01:56;;;;;;;5.18;2.30;;;7.80;96.40;;;;;;5012488;28;20034;-50
2021/12/08 05:07:02;;;;;;;7.63;2.90;;;7.80;96.40;;;;;;5017304;28;20282;-50
2021/12/08 05:09:34;;;;;;;3.15;2.40;;;7.90;96.40;;;;;;5015785;28;20124;-50
2021/12/08 05:12:02;;;;;;;4.93;2.85;;;7.90;96.50;;;;;;5016451;28;20034;-50
2021/12/08 05:14:39;;;;;;;12.50;3.00;;;7.80;96.50;;;;;;5021535;28;20021;-50
2021/12/08 05:17:15;;;;;;;7.85;2.10;;;7.80;96.50;;;;;;5016916;28;20033;-50
2021/12/08 05:19:43;;;;;;;3.63;2.45;;;7.80;96.50;;;;;;5020613;28;20430;-50
2021/12/08 05:22:15;;;;;;;5.53;2.80;;;7.80;96.50;;;;;;5014688;28;20074;-50
2021/12/08 05:24:44;;;;;;;3.63;2.50;;;7.80;96.50;;;;;;5022874;28;20022;-51
2021/12/08 05:27:15;;;;;;;10.75;2.60;;;7.80;96.40;;;;;;5017673;28;20129;-50
2021/12/08 05:29:49;;;;;;;;;;;7.80;96.40;;;;;;5017655;28;20357;-50
2021/12/08 05:32:16;;;;;;;5.22;2.30;;;7.90;96.50;;;;;;5014492;28;20385;-50
2021/12/08 05:34:43;;;;;;;7.13;2.63;;;7.90;96.50;;;;;;5015004;28;20044;-50
2021/12/08 05:37:12;;;;;;;9.40;3.25;;;7.80;96.40;;;;;;5019509;28;20018;-50
2021/12/08 05:39:38;;;;;;;9.43;3.15;;;7.80;96.50;;;;;;5018751;28;20163;-51
2021/12/08 05:42:08;;;;;;;7.38;2.60;;;7.80;96.50;;;;;;5021262;28;20040;-50
2021/12/08 05:44:35;;;;;;;11.27;2.80;;;7.80;96.50;;;;;;5016962;28;20034;-50
2021/12/08 05:47:04;;;;;;;8.23;2.95;;;7.80;96.50;;;;;;5019451;28;20104;-50
2021/12/08 05:49:29;;;;;;;6.72;2.65;;;7.90;96.50;;;;;;5015550;28;20038;-50
2021/12/08 05:51:56;;;;;;;2.20;1.98;;;7.80;96.50;;;;;;5016960;28;20053;-50
2021/12/08 05:54:33;;;;;;;5.28;2.42;;;7.90;96.50;;;;;;5018426;28;20036;-50
2021/12/08 05:57:03;;;;;;;4.35;2.90;;;7.80;96.50;;;;;;5019683;28;20034;-50
2021/12/08 05:59:29;;;;;;;2.97;2.20;;;7.80;96.50;;;;;;5020852;28;20368;-50
2021/12/08 06:02:02;;;;;;;7.10;2.97;;;7.80;96.60;;;;;;5017330;28;20047;-50
2021/12/08 06:04:30;;;;;;;5.93;2.88;;;7.90;96.50;;;;;;5018382;28;20022;-50
2021/12/08 06:06:57;;;;;;;4.53;2.85;;;7.80;96.40;;;;;;5014649;28;20176;-51
2021/12/08 06:09:24;;;;;;;11.20;3.30;;;7.80;96.50;;;;;;5017908;28;20067;-50
2021/12/08 06:11:52;;;;;;;5.32;3.22;;;7.80;96.80;;;;;;5019182;28;20124;-51
2021/12/08 06:14:19;;;;;;;5.72;2.75;;;7.80;96.50;;;;;;5013148;28;20030;-50
2021/12/08 06:16:47;;;;;;;6.32;3.05;;;7.80;96.50;;;;;;5012195;28;20121;-50
2021/12/08 06:19:15;;;;;;;3.60;2.72;;;7.80;96.50;;;;;;5014391;28;20029;-50
2021/12/08 06:21:41;;;;;;;6.13;2.80;;;7.80;96.60;;;;;;5017672;28;20151;-50
2021/12/08 06:24:11;;;;;;;5.55;2.67;;;7.90;96.60;;;;;;5015171;28;20026;-51
2021/12/08 06:26:38;;;;;;;5.95;3.33;;;7.80;96.60;;;;;;5019224;28;20121;-50
2021/12/08 06:29:07;;;;;;;4.45;2.50;;;7.80;96.60;;;;;;5021248;28;20022;-50
2021/12/08 06:31:35;;;;;;;6.53;3.17;;;7.80;96.60;;;;;;5019164;28;20109;-50
2021/12/08 06:34:01;;;;;;;7.95;2.80;;;7.80;96.60;;;;;;5018602;28;20524;-50
2021/12/08 06:36:32;;;;;;;4.15;2.20;;;7.90;96.30;;;;;;5019312;28;20392;-50
2021/12/08 06:38:59;;;;;;;5.88;3.00;;;7.80;95.20;;;;;;5015280;28;20057;-50
2021/12/08 06:41:42;;;;;;;4.32;2.60;;;7.80;95.80;;;;;;5018834;28;20029;-51
2021/12/08 06:44:16;;;;;;;6.10;2.33;;;7.80;95.70;;;;;;5020280;28;20034;-50
2021/12/08 06:46:42;;;;;;;4.15;2.65;;;7.80;95.60;;;;;;5017989;28;20515;-50
2021/12/08 06:49:10;;;;;;;4.68;2.50;;;7.80;95.50;;;;;;5017774;28;20029;-50
2021/12/08 06:51:44;;;;;;;6.15;2.55;;;7.90;95.60;;;;;;5018816;28;20072;-50
2021/12/08 06:54:23;;;;;;;3.58;2.35;;;7.90;95.60;;;;;;5018184;28;20034;-50
2021/12/08 06:56:56;;;;;;;8.95;3.00;;;7.80;95.60;;;;;;5018149;28;20022;-50
2021/12/08 06:59:33;;;;;;;6.88;2.67;;;7.80;95.70;;;;;;5019461;28;20033;-50
2021/12/08 07:02:08;;;;;;;3.25;2.08;;;7.80;95.60;;;;;;5021552;28;20116;-50
2021/12/08 07:04:53;;;;;;;4.65;2.72;;;7.90;95.70;;;;;;5022163;28;20352;-50
2021/12/08 07:07:24;;;;;;;6.88;2.92;;;7.90;95.70;;;;;;5022474;28;20065;-51
2021/12/08 07:10:14;;;;;;;6.03;2.53;;;7.80;95.70;;;;;;5021395;28;20056;-50
2021/12/08 07:12:46;;;;;;;5.05;3.08;;;7.80;95.80;;;;;;5024045;28;20053;-50
2021/12/08 07:15:25;;;;;;;6.50;3.08;;;7.90;95.80;;;;;;5020956;28;20066;-50
2021/12/08 07:17:56;;;;;;;3.92;2.55;;;7.90;95.90;;;;;;5023389;28;20030;-51
2021/12/08 07:20:43;;;;;;;3.78;2.70;;;7.80;95.90;;;;;;5022190;28;20033;-50
2021/12/08 07:23:18;;;;;;;13.38;3.00;;;7.80;95.90;;;;;;5017240;28;20049;-50
2021/12/08 07:25:45;;;;;;;4.32;2.50;;;7.80;95.90;;;;;;5021203;28;20026;-50
2021/12/08 07:28:15;;;;;;;6.55;2.80;;;7.80;96.00;;;;;;5024688;28;20032;-50
2021/12/08 07:30:50;;;;;;;6.50;3.10;;;7.80;96.30;;;;;;5023094;28;20064;-49
2021/12/08 07:33:16;;;;;;;13.48;3.10;;;7.80;96.00;;;;;;5021209;28;20037;-50
2021/12/08 07:35:47;;;;;;;7.70;2.97;;;7.80;96.10;;;;;;5022929;28;20033;-50
2021/12/08 07:38:18;;;;;;;6.65;2.95;;;7.80;96.10;;;;;;5023583;28;20022;-50
2021/12/08 07:41:16;;;;;;;5.50;2.80;;;7.90;96.10;;;;;;5023529;28;20456;-50
2021/12/08 07:43:45;;;;;;;6.80;3.00;;;7.90;96.10;;;;;;5020920;28;20111;-50
2021/12/08 07:46:17;;;;;;;9.60;3.20;;;7.80;96.10;;;;;;5020923;28;20369;-50
2021/12/08 07:48:48;;;;;;;4.65;2.33;;;7.80;96.10;;;;;;5020902;28;20030;-50
2021/12/08 07:51:17;;;;;;;;;;;7.80;96.20;;;;;;5022315;28;20026;-50
2021/12/08 07:53:43;;;;;;;17.73;2.92;;;7.80;96.20;;;;;;5016717;28;19912;-50
2021/12/08 07:56:12;;;;;;;4.38;2.75;;;7.80;96.20;;;;;;5023447;28;20223;-50
2021/12/08 07:58:40;;;;;;;7.15;3.30;;;7.90;96.30;;;;;;5022117;28;20615;-50
2021/12/08 08:01:12;;;;;;;3.47;2.47;;;7.80;96.30;;;;;;5021963;28;20042;-50
2021/12/08 08:03:39;;;;;;;4.38;2.90;;;7.90;96.30;;;;;;5024553;28;20025;-50
2021/12/08 08:06:09;;;;;;;5.82;2.80;;;7.90;96.30;;;;;;5020256;28;20030;-50
2021/12/08 08:08:35;;;;;;;;;;;7.90;96.30;;;;;;5018869;28;20029;-50
2021/12/08 08:11:21;;;;;;;6.30;2.53;;;7.80;96.30;;;;;;5022705;28;19995;-50
2021/12/08 08:13:48;;;;;;;3.28;2.38;;;7.90;96.40;;;;;;5021483;28;20030;-50
2021/12/08 08:16:18;;;;;;;7.15;2.90;;;7.90;96.40;;;;;;5020451;28;20037;-50
2021/12/08 08:18:51;;;;;;;6.55;3.20;;;7.90;96.40;;;;;;5023732;28;20242;-50
2021/12/08 08:21:20;;;;;;;3.88;2.17;;;7.90;96.40;;;;;;5020258;28;20044;-50
2021/12/08 08:23:46;;;;;;;5.55;2.97;;;7.90;96.50;;;;;;5016977;28;20038;-50
2021/12/08 08:26:13;;;;;;;4.25;2.65;;;7.90;96.40;;;;;;5021108;28;20045;-50
2021/12/08 08:28:41;;;;;;;7.20;2.97;;;7.90;96.50;;;;;;5021540;28;20069;-51
2021/12/08 08:31:11;;;;;;;6.78;3.10;;;7.90;96.50;;;;;;5023426;28;20345;-50
2021/12/08 08:33:38;;;;;;;;;;;7.90;96.50;;;;;;5021343;28;20029;-50
2021/12/08 08:36:10;;;;;;;4.93;2.97;;;7.90;96.50;;;;;;5020716;28;19913;-50
2021/12/08 08:38:47;;;;;;;3.38;2.05;;;7.90;96.50;;;;;;5017641;28;20034;-50
2021/12/08 08:41:30;;;;;;;4.32;2.58;;;7.90;96.60;;;;;;5020567;28;20080;-50
2021/12/08 08:43:58;;;;;;;3.28;1.88;;;7.90;96.50;;;;;;5020653;28;20056;-50
2021/12/08 08:46:29;;;;;;;4.50;2.35;;;7.90;96.60;;;;;;5019415;28;20048;-50
2021/12/08 08:49:04;;;;;;;3.45;2.47;;;7.90;96.50;;;;;;5018221;28;20061;-50
2021/12/08 08:51:36;;;;;;;4.28;2.97;;;7.90;96.60;;;;;;5022570;28;20464;-50
2021/12/08 08:54:20;;;;;;;8.55;3.20;;;7.90;96.60;;;;;;5017531;28;20419;-50
2021/12/08 08:57:01;;;;;;;7.05;3.28;;;7.90;96.60;;;;;;5018944;28;20029;-50
2021/12/08 08:59:33;;;;;;;7.60;3.53;;;7.90;96.60;;;;;;5021728;28;20061;-50
2021/12/08 09:02:04;;;;;;;4.07;2.38;;;7.90;96.60;;;;;;5019570;28;20468;-50
2021/12/08 09:04:36;;;;;;;6.38;2.85;;;7.90;96.70;;;;;;5020257;28;20368;-50
2021/12/08 09:07:07;;;;;;;3.03;2.30;;;7.90;96.60;;;;;;5020127;28;20511;-50
2021/12/08 09:09:40;;;;;;;5.63;2.60;;;7.90;96.70;;;;;;5020216;28;20068;-50
2021/12/08 09:12:05;;;;;;;5.68;3.63;;;7.90;96.70;;;;;;5020407;28;20022;-50
2021/12/08 09:14:44;;;;;;;4.80;2.80;;;7.90;96.70;;;;;;5022178;28;20067;-50
2021/12/08 09:17:18;;;;;;;4.57;2.72;;;7.90;96.70;;;;;;5022198;28;20456;-51
2021/12/08 09:19:50;;;;;;;4.07;2.50;;;7.90;96.70;;;;;;5021060;28;20029;-50
2021/12/08 09:22:22;;;;;;;5.82;2.90;;;7.90;96.70;;;;;;5020041;28;20064;-50
2021/12/08 09:24:54;;;;;;;8.23;3.38;;;7.90;96.70;;;;;;5021122;28;20029;-50
2021/12/08 09:27:34;;;;;;;5.85;3.15;;;8.00;96.80;;;;;;5020121;28;20341;-50
2021/12/08 09:30:06;;;;;;;;;;;8.00;96.80;;;;;;5019834;28;20441;-50
2021/12/08 09:32:40;;;;;;;6.88;3.72;;;7.90;96.70;;;;;;5021654;28;19905;-50
2021/12/08 09:35:11;;;;;;;7.93;4.22;;;8.00;96.80;;;;;;5020094;28;20021;-50
2021/12/08 09:37:44;;;;;;;15.13;4.70;;;7.90;96.80;;;;;;5018971;28;20033;-50
2021/12/08 09:40:32;;;;;;;7.07;3.78;;;7.90;96.80;;;;;;5019916;28;20040;-50
2021/12/08 09:43:07;;;;;;;8.00;4.28;;;7.90;96.80;;;;;;5019878;28;20121;-50
2021/12/08 09:45:39;;;;;;;10.52;4.88;;;7.90;96.80;;;;;;5019389;28;20464;-50
2021/12/08 09:48:07;;;;;;;6.65;3.70;;;7.90;96.80;;;;;;5018283;28;20034;-50
2021/12/08 09:50:34;;;;;;;10.40;4.38;;;7.90;96.80;;;;;;5020135;28;20026;-50
2021/12/08 09:53:00;;;;;;;7.95;4.25;;;8.00;96.90;;;;;;5020654;28;20029;-50
2021/12/08 09:55:26;;;;;;;8.25;4.65;;;8.00;96.90;;;;;;5013499;28;20082;-50
2021/12/08 09:57:52;;;;;;;7.03;3.72;;;8.00;96.90;;;;;;5021189;28;20033;-50
2021/12/08 10:00:29;;;;;;;6.07;4.00;;;8.00;96.90;;;;;;5019444;28;20037;-49
2021/12/08 10:02:58;;;;;;;10.02;3.83;;;8.00;96.90;;;;;;5020296;28;20411;-50
2021/12/08 10:05:25;;;;;;;9.68;3.95;;;8.00;96.90;;;;;;5019663;28;20026;-50
2021/12/08 10:07:52;;;;;;;8.23;3.92;;;8.00;96.90;;;;;;5021504;28;20033;-50
2021/12/08 10:10:18;;;;;;;7.75;2.88;;;8.00;96.90;;;;;;5014586;28;20032;-50
2021/12/08 10:12:44;;;;;;;6.78;3.53;;;8.00;97.00;;;;;;5018837;28;20438;-50
2021/12/08 10:15:15;;;;;;;12.02;3.63;;;8.00;96.90;;;;;;5020826;28;20041;-50
2021/12/08 10:17:41;;;;;;;6.97;3.08;;;8.00;97.00;;;;;;5020566;28;20064;-50
2021/12/08 10:20:18;;;;;;;9.35;3.83;;;8.00;97.00;;;;;;5019870;28;20116;-50
2021/12/08 10:22:47;;;;;;;5.70;2.80;;;8.00;97.00;;;;;;5019225;28;20269;-50
2021/12/08 10:25:22;;;;;;;5.63;3.03;;;8.00;97.00;;;;;;5013981;28;20053;-50
2021/12/08 10:28:21;;;;;;;6.00;3.13;;;8.00;97.00;;;;;;5019816;28;20022;-50
2021/12/08 10:30:54;;;;;;;6.00;3.75;;;8.00;97.00;;;;;;5022140;28;20045;-50
2021/12/08 10:39:35;;;;;;;5.30;3.60;;;8.00;97.00;;;;;;4968314;28;20043;-50
2021/12/08 10:42:18;;;;;;;10.40;3.58;;;8.00;97.00;;;;;;4972526;28;20046;-50
2021/12/08 10:44:52;;;;;;;9.15;3.38;;;8.00;97.00;;;;;;4970263;28;20433;-50
2021/12/08 10:47:31;;;;;;;9.23;3.65;;;8.00;97.00;;;;;;4971119;28;20034;-50
2021/12/08 10:55:18;;;;;;;5.88;3.35;;;8.00;97.10;;;;;;4966734;28;20050;-50
2021/12/08 10:57:46;;;;;;;12.57;5.32;;;8.00;97.10;;;;;;4972374;28;20139;-50
2021/12/08 11:00:18;;;;;;;12.23;4.45;;;8.00;97.10;;;;;;4971937;28;20062;-50
2021/12/08 11:02:48;;;;;;;6.78;4.18;;;8.10;97.10;;;;;;4971867;28;20043;-50
2021/12/08 11:05:25;;;;;;;8.20;4.80;;;8.00;97.10;;;;;;4971407;28;20504;-50
2021/12/08 11:08:17;;;;;;;8.07;4.32;;;8.00;97.10;;;;;;4968787;28;20382;-50
2021/12/08 11:10:48;;;;;;;13.50;4.90;;;8.10;97.10;;;;;;4965837;28;20513;-50
2021/12/08 11:13:16;;;;;;;7.60;4.38;;;8.00;97.10;;;;;;4971933;28;20073;-50
2021/12/08 11:15:43;;;;;;;10.27;5.03;;;8.10;97.10;;;;;;5012727;28;20030;-50
2021/12/08 11:18:19;;;;;;;7.97;5.00;;;8.10;97.20;;;;;;5024989;28;20069;-50
2021/12/08 11:20:59;;;;;;;14.80;6.32;;;8.10;97.20;;;;;;5023098;28;20029;-50
2021/12/08 11:24:05;;;;;;;12.68;5.47;;;8.10;97.20;;;;;;5021452;28;20041;-50
2021/12/08 11:26:29;;;;;;;10.07;4.95;;;8.00;97.10;;;;;;5013131;28;20066;-50
2021/12/08 11:29:03;;;;;;;12.95;5.57;;;8.00;97.20;;;;;;5023338;28;20029;-49
2021/12/08 11:31:37;;;;;;;9.10;4.72;;;8.10;97.20;;;;;;5025228;28;20577;-49
2021/12/08 11:34:06;;;;;;;7.47;4.88;;;8.10;97.20;;;;;;5022842;28;20080;-50
2021/12/08 11:36:38;;;;;;;9.00;4.80;;;8.00;97.20;;;;;;5021216;28;20108;-50
2021/12/08 11:39:16;;;;;;;15.98;4.78;;;8.10;97.30;;;;;;5025055;28;20121;-50
2021/12/08 11:41:48;;;;;;;5.95;3.65;;;8.10;97.20;;;;;;5020974;28;20096;-50
2021/12/08 11:44:19;;;;;;;9.50;4.65;;;8.10;97.60;;;;;;5021446;28;20030;-50
2021/12/08 11:46:48;;;;;;;5.95;3.83;;;8.10;97.20;;;;;;5020973;28;20032;-50
2021/12/08 11:49:13;;;;;;;6.65;4.03;;;8.10;97.30;;;;;;5019445;28;20025;-50
2021/12/08 11:51:42;;;;;;;6.03;3.80;;;8.10;97.30;;;;;;5022822;28;20519;-50
2021/12/08 11:54:08;;;;;;;5.80;3.78;;;8.10;97.30;;;;;;5022011;28;20037;-50
2021/12/08 11:56:39;;;;;;;7.47;3.95;;;8.10;97.30;;;;;;5015967;28;20033;-50
2021/12/08 11:59:08;;;;;;;9.05;5.25;;;8.10;97.30;;;;;;5020825;28;20030;-50
2021/12/08 12:01:36;;;;;;;9.75;5.60;;;8.10;97.20;;;;;;5023399;28;20029;-50
2021/12/08 12:04:04;;;;;;;7.00;4.10;;;8.10;97.30;;;;;;5022992;28;20034;-50
2021/12/08 12:06:30;;;;;;;9.63;4.55;;;8.10;97.30;;;;;;5021078;28;20125;-50
2021/12/08 12:08:57;;;;;;;11.02;4.22;;;8.10;97.30;;;;;;5024305;28;20112;-50
2021/12/08 12:11:28;;;;;;;7.40;3.88;;;8.10;97.70;;;;;;5015806;28;20356;-50
2021/12/08 12:13:56;;;;;;;5.82;4.07;;;8.10;97.30;;;;;;5021851;28;20049;-50
2021/12/08 12:16:22;;;;;;;4.35;3.42;;;8.10;97.30;;;;;;5021702;28;20397;-50
2021/12/08 12:18:50;;;;;;;5.75;3.15;;;8.10;97.30;;;;;;5023144;28;20083;-50
2021/12/08 12:21:33;;;;;;;6.22;3.78;;;8.10;97.30;;;;;;5020862;28;20080;-50
2021/12/08 12:24:20;;;;;;;6.43;3.78;;;8.10;97.30;;;;;;5022644;28;20084;-50
2021/12/08 12:27:23;;;;;;;9.82;4.50;;;8.10;97.30;;;;;;5015149;28;20364;-50
2021/12/08 12:30:04;;;;;;;8.73;4.55;;;8.10;97.30;;;;;;5024158;28;20026;-50
2021/12/08 12:32:50;;;;;;;9.45;4.43;;;8.10;97.30;;;;;;5022329;28;20025;-50
2021/12/08 12:35:28;;;;;;;9.70;5.13;;;8.10;97.40;;;;;;5019400;28;20350;-50
2021/12/08 12:38:13;;;;;;;8.00;4.63;;;8.10;97.40;;;;;;5020521;28;20101;-50
2021/12/08 12:40:46;;;;;;;13.05;5.70;;;8.10;97.40;;;;;;5018021;28;20073;-50
2021/12/08 12:43:24;;;;;;;8.73;5.20;;;8.10;97.40;;;;;;5020018;28;20038;-50
2021/12/08 12:46:23;;;;;;;7.22;4.72;;;8.10;97.40;;;;;;5020497;28;20440;-50
2021/12/08 12:48:51;;;;;;;12.13;6.18;;;8.10;97.40;;;;;;5018724;28;20037;-50
2021/12/08 12:51:19;;;;;;;8.57;5.03;;;8.10;97.40;;;;;;5020687;28;20041;-50
2021/12/08 12:53:56;;;;;;;14.82;5.55;;;8.10;97.40;;;;;;5022707;28;20029;-50
2021/12/08 12:56:34;;;;;;;17.00;8.35;;;8.10;97.40;;;;;;5019460;28;20038;-50
2021/12/08 12:59:14;;;;;;;29.60;12.82;;;8.10;97.40;;;;;;5020904;28;20124;-50
2021/12/08 13:01:46;;;;;;;12.68;6.85;;;8.10;97.40;;;;;;5019210;28;20037;-50
2021/12/08 13:04:23;;;;;;;7.22;4.82;;;8.10;97.50;;;;;;5022451;28;20036;-48
2021/12/08 13:06:53;;;;;;;6.55;4.07;;;8.10;97.40;;;;;;5022387;28;20022;-48
2021/12/08 13:09:37;;;;;;;7.15;4.15;;;8.10;97.50;;;;;;5020012;28;20061;-48
2021/12/08 13:12:21;;;;;;;8.50;4.53;;;8.10;97.50;;;;;;5017226;28;20480;-50
2021/12/08 13:15:13;;;;;;;11.52;5.07;;;8.10;97.40;;;;;;5021918;28;20029;-49
2021/12/08 13:18:09;;;;;;;10.68;5.65;;;8.10;97.40;;;;;;5010044;28;20031;-50
2021/12/08 13:20:38;;;;;;;11.95;6.93;;;8.10;97.50;;;;;;5023178;28;20053;-50
2021/12/08 13:23:06;;;;;;;7.45;5.47;;;8.10;97.50;;;;;;5019926;28;20025;-50
2021/12/08 13:31:37;;;;;;;12.70;6.70;;;8.10;97.50;;;;;;5019332;28;20458;-51
2021/12/08 13:34:12;;;;;;;11.20;6.05;;;8.10;97.50;;;;;;5018956;28;20025;-50
2021/12/08 13:36:43;;;;;;;15.60;6.18;;;8.10;97.50;;;;;;5020959;28;20457;-50
2021/12/08 13:39:24;;;;;;;15.80;5.57;;;8.10;97.60;;;;;;5019330;28;20060;-50
2021/12/08 13:41:57;;;;;;;9.48;4.35;;;8.10;97.50;;;;;;5015579;28;20029;-50
2021/12/08 13:44:36;;;;;;;6.80;4.05;;;8.20;97.60;;;;;;5019043;28;20469;-50
2021/12/08 13:47:08;;;;;;;10.48;5.72;;;8.20;97.60;;;;;;5019943;28;20144;-50
2021/12/08 13:49:49;;;;;;;7.85;4.40;;;8.20;97.60;;;;;;5019005;28;20025;-50
2021/12/08 13:52:26;;;;;;;8.68;4.65;;;8.20;97.60;;;;;;5021268;28;20030;-50
2021/12/08 13:54:54;;;;;;;8.50;5.07;;;8.20;97.60;;;;;;5001518;28;20033;-50
2021/12/08 13:57:41;;;;;;;11.27;5.35;;;8.10;97.50;;;;;;5019433;28;20033;-50
2021/12/08 14:00:15;;;;;;;7.32;4.68;;;8.20;97.60;;;;;;5019209;28;20033;-50
2021/12/08 14:02:45;;;;;;;5.40;4.03;;;8.10;97.50;;;;;;5023033;28;20030;-50
2021/12/08 14:05:31;;;;;;;5.50;4.32;;;8.20;97.60;;;;;;5018407;28;20084;-50
2021/12/08 14:08:02;;;;;;;6.72;3.47;;;8.20;97.60;;;;;;5021584;28;20369;-50
2021/12/08 14:10:42;;;;;;;5.85;4.05;;;8.20;97.60;;;;;;5018465;28;20109;-50